Meteo Giornale » Osservazioni meteo Stati Uniti (USA) » Thief River
ore: 16:56 - Osservazioni Meteo Thief River
Lat. 48° 4' N Lon. 96° 11' W Alt. 340 metri s.l.m.
29 °C
Sereno
Temp. 24 Ore
17 °C
29 °C
Sud-Ovest
42.6 Km/h
Dew point 7 °C
Umidità 25 %
Visibilità 10 Km
Il sole sorge alle ore 06:41
Il sole tramonta alle ore 20:08
| Data e Ora | Cielo e Fenomeni | T °C | DP °C | Um. % | Pres. hPa | Vis. km | Vento km/h | |
|---|---|---|---|---|---|---|---|---|
| Oggi h: 16:56 | Sereno | 29 | 7 | 25 | 1008 | 10 | SO 42.6 | |
| Oggi h: 15:56 | Sereno | 29 | 7 | 25 | 1008 | 10 | SO 38.8 | |
| Oggi h: 14:56 | Sereno | 28 | 7 | 26 | 1009 | 10 | SO 38.8 | |
| Oggi h: 13:56 | Sereno | 26 | 12 | 41 | 1010 | 10 | S/SO 20.3 | |
| Oggi h: 12:56 | Sereno | 24 | 13 | 50 | 1011 | 10 | SO 22.2 | |
| Oggi h: 11:56 | Sereno | 23 | 13 | 53 | 1011 | 10 | O/SO 18.5 | |
| Oggi h: 10:56 | Sereno | 22 | 16 | 68 | 1011 | 10 | SO 14.8 | |
| Oggi h: 09:56 | Sereno | 20 | 16 | 77 | 1010 | 10 | O/SO 13 | |
| Oggi h: 08:56 | Sereno | 18 | 17 | 93 | 1010 | 10 | O/SO 11.1 | |
| Oggi h: 08:16 | Poco Nuvoloso | 18 | 17 | 93 | 1009 | 10 | O 11.1 | |
| Oggi h: 07:56 | Molto Nuvoloso | 17 | 17 | 100 | 1009 | 10 | O 9.3 | |
| Oggi h: 07:48 | Molto Nuvoloso | 17 | 17 | 100 | 1009 | 10 | O 13 | |
| Oggi h: 07:35 | Nuvoloso | 17 | 17 | 100 | 1009 | 10 | O 11.1 | |
| Oggi h: 06:56 | Coperto | 17 | 17 | 100 | 1008 | 10 | O 16.7 | |
| Oggi h: 06:20 | Coperto | 18 | 17 | 93 | 1007 | 10 | O 14.8 | |
| Oggi h: 05:56 | Molto Nuvoloso | 18 | 17 | 93 | 1007 | 10 | O/SO 16.7 | |
| Oggi h: 05:53 | Nuvoloso | 18 | 17 | 93 | 1007 | 10 | O 18.5 | |
| Oggi h: 05:18 | Nuvoloso | 18 | 18 | 100 | 1007 | 10 | O 18.5 | |
| Oggi h: 05:12 | Molto Nuvoloso | 18 | 18 | 100 | 1007 | 10 | O 20.3 | |
| Oggi h: 05:03 | Coperto | 19 | 18 | 93 | 1007 | 10 | O 18.5 | |
| Oggi h: 04:56 | Coperto | 19 | 18 | 93 | 1006 | 10 | O 22.2 | |
| Oggi h: 04:17 | Coperto | 20 | 20 | 100 | 1006 | 11 | SO 16.7 | |
| Oggi h: 04:06 | Foschia | 19 | 19 | 100 | 1006 | 6 | S/SO 11.1 | |
| Oggi h: 03:56 | Foschia | 19 | 19 | 100 | 1006 | 6 | S/SO 7.4 | |
| Oggi h: 03:29 | Molto Nuvoloso | 19 | 19 | 100 | 1006 | 11 | S/SO 7.4 | |
| Oggi h: 03:14 | Nuvoloso | 20 | 19 | 93 | 1006 | 13 | SE 13 | |
| Oggi h: 02:56 | Molto Nuvoloso | 20 | 19 | 93 | 1005 | 13 | SE 20.3 | |
| Oggi h: 02:32 | Molto Nuvoloso | 20 | 19 | 93 | 1006 | 14 | SE 13 | |
| Oggi h: 02:16 | Molto Nuvoloso | 20 | 19 | 93 | 1006 | 10 | SE 16.7 | |
| Oggi h: 02:04 | Molto Nuvoloso | 20 | 19 | 93 | 1006 | 10 | S/SE 14.8 | |
| Oggi h: 01:56 | Nuvoloso | 21 | 19 | 88 | 1006 | 10 | S/SE 18.5 | |
| Oggi h: 01:28 | Pioggia | 20 | 19 | 93 | 1006 | 10 | S/SE 22.2 | |
| Oggi h: 01:14 | Temporale nelle vicinanze Pioggia | 21 | 19 | 88 | 1006 | 13 | SE 20.3 | |
| Oggi h: 01:10 | Pioggia | 21 | 19 | 88 | 1006 | 10 | S 16.7 | |
| Oggi h: 00:56 | Temporale | 21 | 19 | 88 | 1006 | 10 | S/SE 14.8 | |
| Oggi h: 00:23 | Coperto | 21 | 19 | 88 | 1006 | 10 | S/SE 14.8 | |
| Oggi h: 00:04 | Molto Nuvoloso | 21 | 19 | 88 | 1006 | 10 | SE 24 | |
| Ieri h: 23:56 | Nuvoloso | 21 | 19 | 88 | 1006 | 10 | SE 18.5 | |
| Ieri h: 22:56 | Sereno | 20 | 18 | 88 | 1006 | 10 | SE 25.9 | |
| Ieri h: 21:56 | Molto Nuvoloso | 20 | 18 | 88 | 1007 | 10 | E/SE 20.3 | |
| Ieri h: 20:56 | Pioggia | 20 | 18 | 88 | 1007 | 10 | E 24 | |
| Ieri h: 20:48 | Pioggia | 21 | 18 | 82 | 1007 | 14 | E/SE 27.8 | |
| Ieri h: 19:56 | Coperto | 21 | 18 | 82 | 1008 | 10 | E/SE 25.9 | |
| Ieri h: 18:56 | Coperto | 21 | 18 | 82 | 1008 | 10 | E/SE 29.6 | |
| Ieri h: 17:56 | Coperto | 22 | 18 | 78 | 1007 | 10 | E 31.5 | |



